Time;durP1;ratioP1;P1;durP2;ratioP2;P2;SDS_P1;SDS_P2;PMS_P1;PMS_P2;Temp;Humidity;BMP_temperature;BMP_pressure;BME280_temperature;BME280_humidity;BME280_pressure;Samples;Min_cycle;Max_cycle;Signal;HPM_P1;HPM_P2
2022/11/02 00:02:25;;;;;;;49.97;7.72;;;;;;;;;;6298452;22;20027;-66
2022/11/02 00:04:52;;;;;;;47.97;6.88;;;;;;;;;;6300605;22;20023;-52
2022/11/02 00:07:26;;;;;;;47.78;8.43;;;;;;;;;;6301032;22;20464;-52
2022/11/02 00:09:53;;;;;;;49.42;7.20;;;;;;;;;;6301804;22;20027;-52
2022/11/02 00:12:20;;;;;;;43.83;7.95;;;;;;;;;;6273686;22;20015;-51
2022/11/02 00:14:54;;;;;;;54.70;8.35;;;;;;;;;;6301571;22;20464;-52
2022/11/02 00:17:21;;;;;;;45.40;7.03;;;;;;;;;;6274290;22;20021;-52
2022/11/02 00:19:48;;;;;;;49.10;7.00;;;;;;;;;;6302340;22;20464;-52
2022/11/02 00:22:22;;;;;;;41.20;7.65;;;;;;;;;;6300515;22;20126;-59
2022/11/02 00:24:49;;;;;;;44.13;6.18;;;;;;;;;;6300026;22;20023;-60
2022/11/02 00:27:23;;;;;;;44.70;6.45;;;;;;;;;;6300729;22;20030;-60
2022/11/02 00:29:50;;;;;;;45.53;7.05;;;;;;;;;;6301636;22;20023;-59
2022/11/02 00:32:18;;;;;;;31.23;6.00;;;;;;;;;;6301177;22;20090;-60
2022/11/02 00:34:51;;;;;;;42.08;6.95;;;;;;;;;;6299215;22;20019;-59
2022/11/02 00:37:18;;;;;;;41.85;7.30;;;;;;;;;;6301646;22;20478;-60
2022/11/02 00:39:52;;;;;;;43.10;6.50;;;;;;;;;;6301275;22;20069;-58
2022/11/02 00:42:19;;;;;;;46.08;6.22;;;;;;;;;;6301815;22;20409;-58
2022/11/02 00:44:46;;;;;;;38.55;6.75;;;;;;;;;;6301308;22;20020;-59
2022/11/02 00:47:20;;;;;;;47.47;6.75;;;;;;;;;;6300752;22;20029;-58
2022/11/02 00:49:47;;;;;;;37.92;5.68;;;;;;;;;;6301309;22;20024;-58
2022/11/02 00:52:21;;;;;;;40.58;6.28;;;;;;;;;;6301721;22;20025;-58
2022/11/02 00:54:48;;;;;;;41.53;6.07;;;;;;;;;;6300893;22;20015;-58
2022/11/02 00:57:16;;;;;;;32.13;5.43;;;;;;;;;;6301641;22;20069;-57
2022/11/02 00:59:49;;;;;;;32.80;5.47;;;;;;;;;;6301755;22;20029;-60
2022/11/02 01:02:23;;;;;;;47.17;5.80;;;;;;;;;;6274516;22;20102;-53
2022/11/02 01:04:57;;;;;;;40.22;6.60;;;;;;;;;;6302391;22;20055;-51
2022/11/02 01:07:24;;;;;;;35.10;6.18;;;;;;;;;;6301612;22;20015;-54
2022/11/02 01:09:52;;;;;;;36.17;6.18;;;;;;;;;;6300720;22;20023;-51
2022/11/02 01:12:25;;;;;;;45.30;5.50;;;;;;;;;;6302189;22;20098;-51
2022/11/02 01:14:52;;;;;;;28.83;5.18;;;;;;;;;;6300843;22;20019;-54
2022/11/02 01:17:26;;;;;;;35.45;5.72;;;;;;;;;;6302545;22;20026;-53
2022/11/02 01:19:53;;;;;;;29.17;5.75;;;;;;;;;;6301661;22;20029;-59
2022/11/02 01:22:20;;;;;;;41.35;5.95;;;;;;;;;;6301233;22;20090;-59
2022/11/02 01:24:54;;;;;;;29.90;5.65;;;;;;;;;;6300812;22;20025;-59
2022/11/02 01:27:21;;;;;;;28.85;4.93;;;;;;;;;;6302012;22;20563;-59
2022/11/02 01:29:55;;;;;;;37.85;5.45;;;;;;;;;;6300759;22;20027;-60
2022/11/02 01:32:23;;;;;;;;;;;;;;;;;;6301874;22;20023;-59
2022/11/02 01:34:50;;;;;;;40.83;5.97;;;;;;;;;;6301677;22;20001;-63
2022/11/02 01:37:23;;;;;;;36.83;5.68;;;;;;;;;;6301665;22;20038;-59
2022/11/02 01:39:50;;;;;;;31.02;5.80;;;;;;;;;;6300683;22;20169;-53
2022/11/02 01:42:25;;;;;;;40.67;5.85;;;;;;;;;;6301260;22;20452;-52
2022/11/02 01:44:52;;;;;;;43.25;5.57;;;;;;;;;;6301444;22;20019;-52
2022/11/02 01:47:19;;;;;;;40.47;5.45;;;;;;;;;;6299783;22;20019;-53
2022/11/02 01:49:56;;;;;;;34.42;5.43;;;;;;;;;;6301648;22;20023;-52
2022/11/02 01:52:34;;;;;;;37.80;5.60;;;;;;;;;;6302546;22;20019;-53
2022/11/02 01:55:11;;;;;;;38.53;5.75;;;;;;;;;;6301378;22;20027;-60
2022/11/02 01:57:40;;;;;;;35.47;5.63;;;;;;;;;;6301856;22;20020;-60
2022/11/02 02:00:27;;;;;;;27.80;5.43;;;;;;;;;;6300446;22;20047;-59
2022/11/02 02:03:09;;;;;;;35.13;5.30;;;;;;;;;;6300456;22;20027;-59
2022/11/02 02:05:47;;;;;;;43.00;5.35;;;;;;;;;;6300494;22;20556;-59
2022/11/02 02:08:17;;;;;;;37.70;5.75;;;;;;;;;;6300812;22;20063;-59
2022/11/02 02:10:51;;;;;;;35.38;5.55;;;;;;;;;;6301474;22;20057;-58
2022/11/02 02:13:18;;;;;;;34.17;5.82;;;;;;;;;;6299788;22;20825;-64
2022/11/02 02:15:49;;;;;;;29.45;5.43;;;;;;;;;;6299130;22;20570;-66
2022/11/02 02:18:25;;;;;;;38.20;5.57;;;;;;;;;;6300909;22;20021;-60
2022/11/02 02:21:11;;;;;;;28.38;5.35;;;;;;;;;;6299994;22;20415;-60
2022/11/02 02:24:04;;;;;;;43.47;6.03;;;;;;;;;;6298797;22;20023;-60
2022/11/02 02:26:37;;;;;;;32.20;5.55;;;;;;;;;;6300154;22;20023;-60
2022/11/02 02:29:22;;;;;;;34.20;5.50;;;;;;;;;;6300693;22;20029;-60
2022/11/02 02:31:53;;;;;;;36.40;5.68;;;;;;;;;;6299637;22;20098;-59
2022/11/02 02:34:32;;;;;;;43.85;7.15;;;;;;;;;;6274964;22;20019;-60
2022/11/02 02:36:59;;;;;;;33.08;6.10;;;;;;;;;;6300321;22;20019;-63
2022/11/02 02:39:43;;;;;;;42.50;5.57;;;;;;;;;;6300366;22;20019;-64
2022/11/02 02:42:15;;;;;;;40.70;6.15;;;;;;;;;;6299358;22;20034;-63
2022/11/02 02:44:58;;;;;;;39.80;6.97;;;;;;;;;;6299470;22;20045;-64
2022/11/02 02:47:33;;;;;;;35.05;6.57;;;;;;;;;;6301473;22;20360;-64
2022/11/02 02:50:11;;;;;;;39.25;5.65;;;;;;;;;;6301670;22;20078;-64
2022/11/02 02:52:38;;;;;;;33.75;5.05;;;;;;;;;;6299762;22;20022;-60
2022/11/02 02:55:07;;;;;;;33.53;6.43;;;;;;;;;;6300202;22;20338;-61
2022/11/02 02:57:41;;;;;;;40.45;5.70;;;;;;;;;;6302133;22;20094;-61
2022/11/02 03:00:08;;;;;;;;;;;;;;;;;;6300337;22;20023;-60
2022/11/02 03:02:59;;;;;;;35.05;6.40;;;;;;;;;;6296974;22;19914;-61
2022/11/02 03:05:30;;;;;;;43.58;7.00;;;;;;;;;;6300215;22;20094;-61
2022/11/02 03:08:11;;;;;;;35.05;5.90;;;;;;;;;;6298900;22;20023;-60
2022/11/02 03:10:47;;;;;;;35.97;6.63;;;;;;;;;;6300532;22;20134;-48
2022/11/02 03:13:33;;;;;;;40.97;6.30;;;;;;;;;;6300481;22;20360;-57
2022/11/02 03:16:23;;;;;;;38.05;6.30;;;;;;;;;;6297887;22;20145;-60
2022/11/02 03:19:05;;;;;;;53.17;6.28;;;;;;;;;;6248714;22;20023;-60
2022/11/02 03:21:43;;;;;;;52.78;7.22;;;;;;;;;;6300856;22;20531;-60
2022/11/02 03:24:18;;;;;;;40.03;5.93;;;;;;;;;;6301615;22;20026;-60
2022/11/02 03:27:04;;;;;;;46.25;6.63;;;;;;;;;;6299409;22;20029;-60
2022/11/02 03:29:40;;;;;;;38.55;6.07;;;;;;;;;;6298353;22;20033;-51
2022/11/02 03:32:14;;;;;;;45.67;6.78;;;;;;;;;;6300040;22;20015;-60
2022/11/02 03:34:54;;;;;;;35.80;5.75;;;;;;;;;;6300665;22;20029;-59
2022/11/02 03:37:28;;;;;;;42.70;6.43;;;;;;;;;;6299539;22;20027;-60
2022/11/02 03:40:10;;;;;;;52.78;6.57;;;;;;;;;;6302470;22;20355;-60
2022/11/02 03:42:39;;;;;;;35.45;5.72;;;;;;;;;;6299292;22;20535;-59
2022/11/02 03:45:15;;;;;;;43.83;7.20;;;;;;;;;;6302282;22;20029;-60
2022/11/02 03:47:44;;;;;;;28.80;5.97;;;;;;;;;;6303000;22;20015;-60
2022/11/02 03:50:19;;;;;;;32.92;5.95;;;;;;;;;;6302056;22;20027;-60
2022/11/02 03:52:47;;;;;;;43.55;6.90;;;;;;;;;;6302016;22;20049;-64
2022/11/02 03:55:41;;;;;;;34.90;6.15;;;;;;;;;;6303314;22;20022;-64
2022/11/02 03:58:11;;;;;;;49.53;6.82;;;;;;;;;;6303135;22;20678;-64
2022/11/02 04:01:01;;;;;;;26.55;5.28;;;;;;;;;;6300940;22;20038;-64
2022/11/02 04:03:38;;;;;;;43.92;6.10;;;;;;;;;;6301601;22;20081;-64
2022/11/02 04:06:12;;;;;;;32.97;5.50;;;;;;;;;;6301681;22;20028;-64
2022/11/02 04:08:41;;;;;;;40.08;6.03;;;;;;;;;;6302839;22;20020;-63
2022/11/02 04:19:26;;;;;;;40.60;5.22;;;;;;;;;;6302544;22;20102;-59
2022/11/02 04:19:39;;;;;;;30.92;5.68;;;;;;;;;;6303698;22;20027;-59
2022/11/02 04:25:14;;;;;;;39.70;5.72;;;;;;;;;;6301824;22;20019;-59
2022/11/02 04:27:52;;;;;;;34.55;5.85;;;;;;;;;;6301845;22;20054;-63
2022/11/02 04:30:20;;;;;;;41.22;5.97;;;;;;;;;;6301575;22;20023;-61
2022/11/02 04:35:40;;;;;;;32.60;5.35;;;;;;;;;;6301906;22;20030;-61
2022/11/02 04:43:51;;;;;;;34.97;5.97;;;;;;;;;;6302221;22;20015;-60
2022/11/02 04:46:19;;;;;;;32.13;6.50;;;;;;;;;;6302871;22;20348;-67
2022/11/02 04:48:52;;;;;;;34.53;6.20;;;;;;;;;;6302454;22;20019;-63
2022/11/02 04:51:20;;;;;;;29.60;6.22;;;;;;;;;;6303330;22;20023;-63
2022/11/02 04:53:51;;;;;;;33.70;6.05;;;;;;;;;;6302111;22;20022;-63
2022/11/02 04:56:25;;;;;;;32.87;5.67;;;;;;;;;;6301377;22;20022;-64
2022/11/02 04:58:53;;;;;;;30.17;6.55;;;;;;;;;;6300650;22;20027;-63
2022/11/02 05:01:40;;;;;;;28.42;5.40;;;;;;;;;;6300342;22;20023;-63
2022/11/02 05:04:14;;;;;;;31.48;6.28;;;;;;;;;;6302411;22;20081;-59
2022/11/02 05:06:48;;;;;;;36.25;5.72;;;;;;;;;;6302094;22;20533;-59
2022/11/02 05:09:15;;;;;;;40.95;6.90;;;;;;;;;;6300987;22;20027;-63
2022/11/02 05:11:43;;;;;;;44.20;7.00;;;;;;;;;;6303038;22;20021;-63
2022/11/02 05:14:16;;;;;;;38.00;6.13;;;;;;;;;;6301275;22;20019;-63
2022/11/02 05:16:43;;;;;;;41.83;6.20;;;;;;;;;;6301828;22;20098;-63
2022/11/02 05:19:17;;;;;;;29.25;5.97;;;;;;;;;;6301350;22;20098;-63
2022/11/02 05:21:44;;;;;;;27.90;5.43;;;;;;;;;;6298635;22;20464;-62
2022/11/02 05:24:18;;;;;;;30.42;5.90;;;;;;;;;;6302264;22;20026;-63
2022/11/02 05:26:47;;;;;;;44.75;6.53;;;;;;;;;;6300350;22;20476;-66
2022/11/02 05:29:20;;;;;;;39.15;6.40;;;;;;;;;;6300517;22;20027;-66
2022/11/02 05:31:53;;;;;;;32.88;6.72;;;;;;;;;;6302232;22;20480;-66
2022/11/02 05:34:20;;;;;;;46.90;7.38;;;;;;;;;;6300744;22;20023;-66
2022/11/02 05:36:54;;;;;;;42.75;6.65;;;;;;;;;;6299977;22;20098;-65
2022/11/02 05:39:21;;;;;;;42.95;6.88;;;;;;;;;;6303207;22;20021;-66
2022/11/02 05:41:48;;;;;;;35.67;7.18;;;;;;;;;;6302448;22;20049;-67
2022/11/02 05:44:22;;;;;;;32.22;6.20;;;;;;;;;;6301352;22;20019;-62
2022/11/02 05:46:49;;;;;;;43.30;7.07;;;;;;;;;;6302541;22;20020;-59
2022/11/02 05:49:17;;;;;;;35.83;6.63;;;;;;;;;;6301167;22;20495;-58
2022/11/02 05:51:50;;;;;;;32.58;6.18;;;;;;;;;;6275859;22;20451;-59
2022/11/02 05:54:17;;;;;;;29.67;7.30;;;;;;;;;;6301079;22;20050;-59
2022/11/02 05:56:53;;;;;;;35.83;6.97;;;;;;;;;;6298877;22;20020;-58
2022/11/02 05:59:20;;;;;;;38.40;7.25;;;;;;;;;;6297198;22;20054;-58
2022/11/02 06:01:47;;;;;;;38.25;7.43;;;;;;;;;;6300732;22;20029;-60
2022/11/02 06:04:28;;;;;;;40.05;6.65;;;;;;;;;;6299616;22;20023;-62
2022/11/02 06:06:55;;;;;;;36.75;7.15;;;;;;;;;;6301708;22;20490;-59
2022/11/02 06:09:29;;;;;;;42.90;7.72;;;;;;;;;;6301382;22;20360;-60
2022/11/02 06:11:56;;;;;;;34.10;7.57;;;;;;;;;;6300682;22;20536;-59
2022/11/02 06:14:30;;;;;;;39.80;6.60;;;;;;;;;;6302767;22;20023;-60
2022/11/02 06:16:57;;;;;;;45.05;7.05;;;;;;;;;;6302442;22;20026;-59
2022/11/02 06:19:24;;;;;;;38.30;6.63;;;;;;;;;;6302425;22;20019;-59
2022/11/02 06:21:58;;;;;;;35.65;7.18;;;;;;;;;;6301004;22;20098;-60
2022/11/02 06:24:25;;;;;;;41.20;7.32;;;;;;;;;;6301646;22;20023;-59
2022/11/02 06:26:59;;;;;;;33.42;6.70;;;;;;;;;;6301933;22;20359;-59
2022/11/02 06:29:26;;;;;;;45.45;7.75;;;;;;;;;;6300941;22;20023;-59
2022/11/02 06:31:53;;;;;;;33.88;7.70;;;;;;;;;;6301880;22;20078;-59
2022/11/02 06:34:27;;;;;;;33.95;6.95;;;;;;;;;;6300620;22;20030;-59
2022/11/02 06:36:54;;;;;;;30.50;7.30;;;;;;;;;;6302259;22;20019;-59
2022/11/02 06:39:28;;;;;;;31.90;7.55;;;;;;;;;;6301174;22;20030;-65
2022/11/02 06:41:55;;;;;;;33.95;7.28;;;;;;;;;;6301220;22;20030;-62
2022/11/02 06:44:22;;;;;;;35.42;8.27;;;;;;;;;;6301058;22;20023;-59
2022/11/02 06:46:56;;;;;;;33.08;7.18;;;;;;;;;;6302296;22;20023;-58
2022/11/02 06:49:23;;;;;;;39.97;7.90;;;;;;;;;;6301731;22;20512;-59
2022/11/02 06:51:57;;;;;;;37.08;8.75;;;;;;;;;;6301731;22;20051;-59
2022/11/02 06:54:25;;;;;;;33.63;8.00;;;;;;;;;;6302000;22;20344;-59
2022/11/02 06:56:52;;;;;;;39.00;7.70;;;;;;;;;;6299504;22;20081;-59
2022/11/02 06:59:25;;;;;;;33.35;7.53;;;;;;;;;;6275366;22;20471;-66
2022/11/02 07:01:53;;;;;;;28.38;7.32;;;;;;;;;;6300336;22;20342;-61
2022/11/02 07:04:33;;;;;;;37.90;7.78;;;;;;;;;;6300242;22;20020;-62
2022/11/02 07:07:00;;;;;;;32.88;7.97;;;;;;;;;;6301037;22;20026;-63
2022/11/02 07:09:34;;;;;;;35.90;8.32;;;;;;;;;;6300734;22;20027;-62
2022/11/02 07:12:01;;;;;;;36.53;9.65;;;;;;;;;;6300173;22;20401;-62
2022/11/02 07:14:28;;;;;;;39.22;9.50;;;;;;;;;;6299566;22;20092;-62
2022/11/02 07:17:02;;;;;;;37.58;8.75;;;;;;;;;;6301320;22;20019;-63
2022/11/02 07:19:29;;;;;;;31.00;9.45;;;;;;;;;;6300653;22;20126;-58
2022/11/02 07:21:56;;;;;;;36.92;9.55;;;;;;;;;;6300421;22;20598;-59
2022/11/02 07:24:30;;;;;;;32.83;9.88;;;;;;;;;;6301245;22;20051;-59
2022/11/02 07:26:57;;;;;;;46.90;9.43;;;;;;;;;;6300324;22;20019;-59
2022/11/02 07:29:31;;;;;;;38.78;9.75;;;;;;;;;;6300049;22;20102;-59
2022/11/02 07:31:58;;;;;;;34.90;9.70;;;;;;;;;;6301463;22;20109;-59
2022/11/02 07:34:26;;;;;;;37.17;9.57;;;;;;;;;;6299593;22;20126;-59
2022/11/02 07:36:59;;;;;;;35.28;9.10;;;;;;;;;;6300371;22;20363;-49
2022/11/02 07:39:26;;;;;;;26.10;8.32;;;;;;;;;;6301383;22;20133;-59
2022/11/02 07:41:53;;;;;;;35.60;8.50;;;;;;;;;;6301526;22;20051;-60
2022/11/02 07:44:29;;;;;;;33.78;9.35;;;;;;;;;;6301936;22;20499;-60
2022/11/02 07:46:56;;;;;;;33.63;9.02;;;;;;;;;;6300783;22;20022;-59
2022/11/02 07:49:30;;;;;;;31.40;8.10;;;;;;;;;;6301107;22;20547;-60
2022/11/02 07:51:57;;;;;;;41.70;9.60;;;;;;;;;;6300307;22;20102;-60
2022/11/02 07:54:24;;;;;;;40.50;9.55;;;;;;;;;;6301083;22;20639;-60
2022/11/02 07:56:58;;;;;;;34.95;8.88;;;;;;;;;;6298415;22;20019;-63
2022/11/02 07:59:26;;;;;;;27.08;8.23;;;;;;;;;;6299358;22;20030;-60
2022/11/02 08:02:15;;;;;;;36.75;9.93;;;;;;;;;;6300825;22;20117;-59
2022/11/02 08:04:49;;;;;;;34.28;8.93;;;;;;;;;;6299583;22;20021;-59
2022/11/02 08:07:23;;;;;;;33.05;9.30;;;;;;;;;;6301046;22;20026;-59
2022/11/02 08:09:50;;;;;;;29.75;8.82;;;;;;;;;;6300462;22;20361;-60
2022/11/02 08:12:18;;;;;;;28.77;8.82;;;;;;;;;;6300655;22;20037;-59
2022/11/02 08:14:51;;;;;;;29.08;8.30;;;;;;;;;;6300352;22;20022;-52
2022/11/02 08:17:18;;;;;;;26.65;6.80;;;;;;;;;;6301668;22;20098;-49
2022/11/02 08:19:52;;;;;;;28.17;8.38;;;;;;;;;;6301143;22;20029;-61
2022/11/02 08:22:19;;;;;;;36.85;9.52;;;;;;;;;;6300625;22;20098;-60
2022/11/02 08:24:47;;;;;;;28.52;7.53;;;;;;;;;;6301507;22;20094;-61
2022/11/02 08:27:23;;;;;;;25.30;6.97;;;;;;;;;;6302044;22;20033;-61
2022/11/02 08:29:50;;;;;;;18.00;5.78;;;;;;;;;;6303239;22;20098;-60
2022/11/02 08:32:23;;;;;;;20.25;6.50;;;;;;;;;;6276135;22;20023;-61
2022/11/02 08:34:50;;;;;;;16.63;5.80;;;;;;;;;;6302554;22;20020;-63
2022/11/02 08:37:18;;;;;;;25.35;5.25;;;;;;;;;;6275147;22;20045;-59
2022/11/02 08:39:51;;;;;;;15.35;4.85;;;;;;;;;;6302337;22;20019;-59
2022/11/02 08:42:18;;;;;;;9.02;3.90;;;;;;;;;;6303074;22;20023;-61
2022/11/02 08:44:46;;;;;;;11.90;3.85;;;;;;;;;;6302703;22;20019;-59
2022/11/02 08:47:20;;;;;;;18.08;4.05;;;;;;;;;;6301905;22;20102;-59
2022/11/02 08:49:47;;;;;;;9.85;3.60;;;;;;;;;;6302358;22;20021;-59
2022/11/02 08:52:21;;;;;;;13.43;3.42;;;;;;;;;;6303724;22;20025;-59
2022/11/02 08:54:48;;;;;;;9.23;3.30;;;;;;;;;;6302876;22;20110;-63
2022/11/02 08:57:22;;;;;;;8.60;3.28;;;;;;;;;;6302258;22;20027;-62
2022/11/02 08:59:49;;;;;;;9.77;3.45;;;;;;;;;;6300503;22;20054;-63
2022/11/02 09:02:17;;;;;;;13.30;4.00;;;;;;;;;;6297306;22;20029;-63
2022/11/02 09:04:50;;;;;;;11.52;3.80;;;;;;;;;;6301027;22;20019;-62
2022/11/02 09:07:18;;;;;;;9.07;3.00;;;;;;;;;;6303143;22;20020;-63
2022/11/02 09:09:45;;;;;;;10.45;3.33;;;;;;;;;;6300691;22;20019;-63
2022/11/02 09:12:18;;;;;;;7.80;3.30;;;;;;;;;;6302339;22;20023;-60
2022/11/02 09:14:52;;;;;;;10.10;3.53;;;;;;;;;;6301406;22;20022;-60
2022/11/02 09:17:19;;;;;;;11.02;4.07;;;;;;;;;;6301861;22;20041;-59
2022/11/02 09:19:53;;;;;;;9.50;3.65;;;;;;;;;;6301789;22;20020;-58
2022/11/02 09:22:20;;;;;;;8.55;3.75;;;;;;;;;;6301190;22;20356;-59
2022/11/02 09:24:48;;;;;;;17.38;4.00;;;;;;;;;;6300544;22;20019;-59
2022/11/02 09:27:28;;;;;;;12.65;3.58;;;;;;;;;;6303566;22;20098;-59
2022/11/02 09:29:55;;;;;;;17.58;4.65;;;;;;;;;;6301512;22;20019;-59
2022/11/02 09:32:32;;;;;;;14.90;4.07;;;;;;;;;;6301072;22;20015;-50
2022/11/02 09:35:00;;;;;;;15.93;4.53;;;;;;;;;;6301768;22;20501;-59
2022/11/02 09:37:27;;;;;;;10.13;3.97;;;;;;;;;;6302749;22;20046;-59
2022/11/02 09:40:02;;;;;;;12.23;4.88;;;;;;;;;;6301467;22;20102;-59
2022/11/02 09:42:30;;;;;;;19.42;5.18;;;;;;;;;;6301999;22;20038;-59
2022/11/02 09:45:06;;;;;;;13.95;4.82;;;;;;;;;;6301684;22;20356;-58
2022/11/02 09:47:38;;;;;;;15.15;5.05;;;;;;;;;;6302246;22;20051;-60
2022/11/02 09:50:40;;;;;;;18.63;4.38;;;;;;;;;;6301594;22;20049;-65
2022/11/02 09:53:09;;;;;;;19.17;4.88;;;;;;;;;;6302377;22;20468;-66
2022/11/02 09:55:53;;;;;;;18.83;4.80;;;;;;;;;;6301049;22;20015;-60
2022/11/02 09:58:27;;;;;;;23.05;5.25;;;;;;;;;;6302297;22;20038;-60
2022/11/02 10:01:05;;;;;;;22.30;5.35;;;;;;;;;;6302207;22;20047;-59
2022/11/02 10:03:47;;;;;;;14.52;4.43;;;;;;;;;;6299992;22;20075;-60
2022/11/02 10:06:22;;;;;;;17.80;4.82;;;;;;;;;;6302247;22;20030;-59
2022/11/02 10:08:56;;;;;;;18.27;4.63;;;;;;;;;;6300884;22;20093;-60
2022/11/02 10:11:31;;;;;;;20.80;5.18;;;;;;;;;;6301107;22;20027;-54
2022/11/02 10:14:04;;;;;;;20.55;4.35;;;;;;;;;;6300368;22;20098;-64
2022/11/02 10:16:57;;;;;;;23.83;4.43;;;;;;;;;;6300837;22;20493;-64
2022/11/02 10:19:25;;;;;;;19.58;4.80;;;;;;;;;;6300857;22;20030;-64
2022/11/02 10:22:00;;;;;;;18.85;4.30;;;;;;;;;;6300749;22;20037;-64
2022/11/02 10:24:27;;;;;;;;;;;;;;;;;;6302267;22;20022;-63
2022/11/02 10:26:56;;;;;;;14.43;4.30;;;;;;;;;;6301129;22;20257;-64
2022/11/02 10:29:37;;;;;;;17.38;4.43;;;;;;;;;;6301535;22;20050;-64
2022/11/02 10:32:19;;;;;;;15.70;3.92;;;;;;;;;;6301365;22;20019;-50
2022/11/02 10:35:03;;;;;;;20.65;3.88;;;;;;;;;;6300735;22;20098;-53
2022/11/02 10:37:55;;;;;;;20.17;3.88;;;;;;;;;;6301988;22;20035;-56
2022/11/02 10:40:38;;;;;;;21.08;4.00;;;;;;;;;;6302226;22;20090;-51
2022/11/02 10:43:15;;;;;;;21.90;3.88;;;;;;;;;;6301029;22;20021;-55
2022/11/02 10:45:52;;;;;;;19.67;4.28;;;;;;;;;;6301088;22;20146;-55
2022/11/02 10:48:19;;;;;;;17.33;3.58;;;;;;;;;;6302079;22;20059;-59
2022/11/02 10:50:53;;;;;;;12.32;3.75;;;;;;;;;;6300317;22;20479;-66
2022/11/02 10:53:21;;;;;;;26.23;4.20;;;;;;;;;;6298833;22;20026;-66
2022/11/02 10:56:18;;;;;;;18.00;3.60;;;;;;;;;;6301324;22;20025;-66
2022/11/02 10:58:45;;;;;;;;;;;;;;;;;;6301934;22;20021;-66
2022/11/02 11:01:19;;;;;;;19.38;3.63;;;;;;;;;;6301192;22;19958;-66
2022/11/02 11:04:01;;;;;;;20.63;4.22;;;;;;;;;;6300537;22;20478;-66
2022/11/02 11:06:36;;;;;;;16.20;3.60;;;;;;;;;;6301619;22;20452;-61
2022/11/02 11:09:06;;;;;;;17.08;4.07;;;;;;;;;;6299661;22;20090;-60
2022/11/02 11:11:41;;;;;;;11.68;3.45;;;;;;;;;;6301415;22;20454;-52
2022/11/02 11:14:08;;;;;;;;;;;;;;;;;;6300850;22;20022;-50
2022/11/02 11:16:59;;;;;;;20.65;4.85;;;;;;;;;;6299906;22;19914;-52
2022/11/02 11:19:54;;;;;;;18.27;4.00;;;;;;;;;;6299468;22;20041;-53
2022/11/02 11:22:30;;;;;;;22.17;4.15;;;;;;;;;;6300780;22;20536;-52
2022/11/02 11:25:10;;;;;;;14.30;3.95;;;;;;;;;;6301262;22;20022;-66
2022/11/02 11:27:47;;;;;;;22.20;4.07;;;;;;;;;;6301382;22;20524;-60
2022/11/02 11:30:32;;;;;;;18.75;3.67;;;;;;;;;;6299642;22;20019;-60
2022/11/02 11:33:21;;;;;;;20.33;3.95;;;;;;;;;;6300685;22;20023;-60
2022/11/02 11:35:55;;;;;;;17.63;4.28;;;;;;;;;;6300664;22;20476;-60
2022/11/02 11:38:25;;;;;;;23.88;4.50;;;;;;;;;;6299890;22;20094;-60
2022/11/02 11:40:59;;;;;;;18.98;3.75;;;;;;;;;;6301063;22;20110;-60
2022/11/02 11:43:29;;;;;;;18.35;3.95;;;;;;;;;;6300748;22;20094;-60
2022/11/02 11:46:04;;;;;;;22.83;4.28;;;;;;;;;;6298531;22;20027;-60
2022/11/02 11:48:42;;;;;;;20.17;3.65;;;;;;;;;;6299578;22;20019;-59
2022/11/02 11:51:18;;;;;;;23.27;4.35;;;;;;;;;;6301058;22;20019;-58
2022/11/02 11:54:09;;;;;;;17.00;3.40;;;;;;;;;;6300311;22;20023;-59
2022/11/02 11:56:43;;;;;;;19.80;4.43;;;;;;;;;;6300398;22;20025;-58
2022/11/02 11:59:20;;;;;;;22.08;3.88;;;;;;;;;;6302426;22;20031;-57
2022/11/02 12:02:07;;;;;;;23.20;3.92;;;;;;;;;;6302372;22;20034;-57
2022/11/02 12:04:42;;;;;;;23.00;4.38;;;;;;;;;;6301872;22;20058;-59
2022/11/02 12:07:18;;;;;;;18.15;4.22;;;;;;;;;;6302983;22;20503;-48
2022/11/02 12:09:51;;;;;;;15.82;3.53;;;;;;;;;;6302665;22;20118;-51
2022/11/02 12:12:37;;;;;;;20.60;4.20;;;;;;;;;;6301389;22;20026;-48
2022/11/02 12:15:36;;;;;;;21.95;4.05;;;;;;;;;;6302156;22;20019;-51
2022/11/02 12:18:19;;;;;;;19.90;3.75;;;;;;;;;;6242320;22;20472;-51
2022/11/02 12:20:59;;;;;;;21.70;4.05;;;;;;;;;;6302169;22;20023;-54
2022/11/02 12:23:48;;;;;;;17.55;3.35;;;;;;;;;;6301261;22;20098;-58
2022/11/02 12:26:24;;;;;;;21.45;4.00;;;;;;;;;;6274020;22;20538;-60
2022/11/02 12:29:16;;;;;;;19.52;3.35;;;;;;;;;;6302740;22;20019;-60
2022/11/02 12:31:54;;;;;;;16.25;3.35;;;;;;;;;;6302741;22;20023;-60
2022/11/02 12:34:43;;;;;;;16.38;3.17;;;;;;;;;;6300841;22;20448;-61
2022/11/02 12:37:45;;;;;;;15.10;2.80;;;;;;;;;;6301127;22;20468;-60
2022/11/02 12:40:21;;;;;;;14.18;3.22;;;;;;;;;;6302505;22;20033;-60
2022/11/02 12:43:14;;;;;;;15.52;2.90;;;;;;;;;;6301295;22;20816;-64
2022/11/02 12:45:47;;;;;;;13.52;2.65;;;;;;;;;;6301917;22;20023;-60
2022/11/02 12:48:48;;;;;;;15.32;3.42;;;;;;;;;;6302625;22;20102;-60
2022/11/02 12:51:18;;;;;;;17.90;3.17;;;;;;;;;;6296116;22;20041;-60
2022/11/02 12:53:55;;;;;;;19.10;3.30;;;;;;;;;;6302469;22;20026;-60
2022/11/02 12:56:43;;;;;;;15.00;3.17;;;;;;;;;;6302651;22;20360;-60
2022/11/02 12:59:27;;;;;;;16.58;3.03;;;;;;;;;;6301364;22;20205;-60
2022/11/02 13:01:54;;;;;;;;;;;;;;;;;;6301653;22;20027;-66
2022/11/02 13:04:39;;;;;;;14.52;3.10;;;;;;;;;;6302014;22;19922;-66
2022/11/02 13:07:12;;;;;;;16.73;3.58;;;;;;;;;;6301855;22;20364;-66
2022/11/02 13:09:51;;;;;;;13.52;2.50;;;;;;;;;;6302124;22;20020;-66
2022/11/02 13:12:20;;;;;;;9.43;2.70;;;;;;;;;;6302622;22;20029;-65
2022/11/02 13:14:56;;;;;;;17.65;2.63;;;;;;;;;;6302526;22;20098;-65
2022/11/02 13:17:26;;;;;;;16.85;2.83;;;;;;;;;;6301258;22;20061;-65
2022/11/02 13:19:55;;;;;;;16.88;2.90;;;;;;;;;;6301610;22;20022;-58
2022/11/02 13:22:33;;;;;;;18.38;2.90;;;;;;;;;;6299438;22;20023;-60
2022/11/02 13:25:16;;;;;;;11.32;2.35;;;;;;;;;;6301492;22;20047;-58
2022/11/02 13:28:11;;;;;;;15.38;2.55;;;;;;;;;;6301925;22;20029;-58
2022/11/02 13:30:39;;;;;;;;;;;;;;;;;;6301894;22;20015;-57
2022/11/02 13:33:16;;;;;;;21.52;2.90;;;;;;;;;;6302005;22;19919;-59
2022/11/02 13:35:45;;;;;;;14.10;2.40;;;;;;;;;;6301585;22;20109;-59
2022/11/02 13:38:29;;;;;;;19.08;2.53;;;;;;;;;;6300676;22;20058;-65
2022/11/02 13:41:08;;;;;;;22.15;2.92;;;;;;;;;;6301774;22;20029;-52
2022/11/02 13:43:51;;;;;;;16.63;2.65;;;;;;;;;;6301517;22;20106;-53
2022/11/02 13:46:27;;;;;;;19.35;3.08;;;;;;;;;;6300874;22;20026;-50
2022/11/02 13:49:10;;;;;;;18.95;3.35;;;;;;;;;;6301886;22;20025;-54
2022/11/02 13:51:42;;;;;;;13.93;2.65;;;;;;;;;;6300018;22;20031;-53
2022/11/02 13:54:18;;;;;;;21.25;2.70;;;;;;;;;;6301334;22;20090;-55
2022/11/02 13:56:46;;;;;;;14.63;2.60;;;;;;;;;;6302319;22;20019;-50
2022/11/02 13:59:22;;;;;;;18.27;2.83;;;;;;;;;;6300100;22;20053;-60
2022/11/02 14:01:51;;;;;;;18.98;2.92;;;;;;;;;;6300325;22;20357;-67
2022/11/02 14:04:32;;;;;;;24.83;3.50;;;;;;;;;;6270779;22;20027;-67
2022/11/02 14:07:01;;;;;;;17.90;3.22;;;;;;;;;;6270134;22;20022;-66
2022/11/02 14:09:41;;;;;;;15.02;2.80;;;;;;;;;;6271211;22;20022;-67
2022/11/02 14:12:17;;;;;;;18.35;2.63;;;;;;;;;;6270346;22;20034;-67
2022/11/02 14:15:09;;;;;;;17.27;2.78;;;;;;;;;;6270557;22;20030;-65
2022/11/02 14:17:55;;;;;;;18.52;2.83;;;;;;;;;;6271758;22;20020;-60
2022/11/02 14:20:47;;;;;;;19.60;2.33;;;;;;;;;;6269789;22;20020;-58
2022/11/02 14:23:17;;;;;;;16.48;2.35;;;;;;;;;;6271145;22;20026;-58
2022/11/02 14:25:52;;;;;;;14.15;2.90;;;;;;;;;;6269409;22;20468;-58
2022/11/02 14:28:19;;;;;;;12.70;2.00;;;;;;;;;;6271442;22;20108;-58
2022/11/02 14:31:02;;;;;;;12.65;1.98;;;;;;;;;;6269602;22;20322;-57
2022/11/02 14:33:48;;;;;;;23.27;2.80;;;;;;;;;;6271508;22;20364;-58
2022/11/02 14:36:46;;;;;;;15.48;2.13;;;;;;;;;;6269693;22;20054;-66
2022/11/02 14:39:28;;;;;;;14.95;2.50;;;;;;;;;;6271152;22;20024;-50
2022/11/02 14:42:17;;;;;;;15.63;2.58;;;;;;;;;;6270567;22;20030;-55
2022/11/02 14:44:58;;;;;;;10.00;1.77;;;;;;;;;;6270456;22;20448;-50
2022/11/02 14:47:34;;;;;;;15.60;2.03;;;;;;;;;;6271057;22;20532;-49
2022/11/02 14:50:06;;;;;;;15.55;2.28;;;;;;;;;;6270779;22;20279;-49
2022/11/02 14:52:42;;;;;;;15.25;2.72;;;;;;;;;;6269304;22;20107;-51
2022/11/02 14:55:18;;;;;;;14.07;2.63;;;;;;;;;;6270816;22;20042;-60
2022/11/02 14:57:57;;;;;;;17.00;2.65;;;;;;;;;;6270291;22;20027;-59
2022/11/02 15:00:29;;;;;;;14.10;3.28;;;;;;;;;;6269696;22;20030;-61
2022/11/02 15:03:32;;;;;;;16.00;2.42;;;;;;;;;;6281529;22;20556;-60
2022/11/02 15:06:18;;;;;;;16.40;2.50;;;;;;;;;;6299394;22;20023;-61
2022/11/02 15:08:56;;;;;;;18.85;2.40;;;;;;;;;;6300408;22;20049;-60
2022/11/02 15:11:41;;;;;;;10.85;1.73;;;;;;;;;;6301157;22;20090;-60
2022/11/02 15:14:34;;;;;;;10.90;2.00;;;;;;;;;;6298040;22;20027;-53
2022/11/02 15:17:02;;;;;;;10.18;2.05;;;;;;;;;;6299382;22;20511;-59
2022/11/02 15:19:37;;;;;;;20.63;2.92;;;;;;;;;;6299289;22;20106;-64
2022/11/02 15:22:22;;;;;;;20.50;5.50;;;;;;;;;;6299084;22;20022;-63
2022/11/02 15:25:03;;;;;;;17.52;2.80;;;;;;;;;;6298682;22;20022;-62
2022/11/02 17:44:20;;;;;;;14.10;2.80;;;;;;;;;;6299426;22;20019;-59
2022/11/02 17:46:48;;;;;;;25.92;2.60;;;;;;;;;;6298981;22;20067;-60
2022/11/02 17:49:15;;;;;;;10.02;2.75;;;;;;;;;;6298228;22;20041;-60
2022/11/02 17:51:48;;;;;;;14.90;2.45;;;;;;;;;;6297891;22;20038;-59